createdAt,value
2018-11-14T00:00:51.078Z,10.10
2018-11-14T00:01:51.071Z,10.09
2018-11-14T00:02:51.056Z,10.14
2018-11-14T00:03:51.050Z,10.09
2018-11-14T00:04:51.044Z,10.13
2018-11-14T00:05:51.037Z,10.13
2018-11-14T00:06:51.028Z,10.13
2018-11-14T00:07:51.011Z,10.06
2018-11-14T00:08:51.008Z,9.96
2018-11-14T00:09:50.994Z,9.96
2018-11-14T00:10:50.985Z,9.89
2018-11-14T00:11:50.981Z,9.91
2018-11-14T00:12:50.973Z,9.93
2018-11-14T00:13:50.965Z,9.89
2018-11-14T00:14:50.954Z,9.85
2018-11-14T00:15:50.940Z,9.89
2018-11-14T00:16:50.933Z,9.75
2018-11-14T00:17:50.927Z,9.75
2018-11-14T00:18:50.921Z,9.78
2018-11-14T00:19:50.905Z,9.75
2018-11-14T00:20:50.897Z,9.73
2018-11-14T00:21:50.888Z,9.83
2018-11-14T00:22:50.883Z,9.65
2018-11-14T00:23:50.875Z,9.68
2018-11-14T00:24:50.919Z,9.70
2018-11-14T00:25:50.858Z,9.67
2018-11-14T00:26:51.141Z,9.67
2018-11-14T00:27:50.869Z,9.65
2018-11-14T00:28:50.824Z,9.70
2018-11-14T00:29:50.817Z,9.67
2018-11-14T00:30:50.808Z,9.65
2018-11-14T00:31:50.802Z,9.63
2018-11-14T00:32:50.796Z,9.65
2018-11-14T00:33:50.781Z,9.71
2018-11-14T00:34:50.833Z,9.67
2018-11-14T00:35:50.765Z,9.62
2018-11-14T00:36:50.756Z,9.58
2018-11-14T00:37:50.752Z,9.63
2018-11-14T00:38:50.740Z,9.56
2018-11-14T00:39:50.725Z,9.59
2018-11-14T00:40:50.716Z,9.52
2018-11-14T00:41:50.712Z,9.48
2018-11-14T00:42:50.703Z,9.45
2018-11-14T00:43:50.688Z,9.49
2018-11-14T00:44:50.680Z,9.52
2018-11-14T00:45:50.670Z,9.48
2018-11-14T00:46:50.661Z,9.45
2018-11-14T00:47:50.662Z,9.50
2018-11-14T00:48:50.648Z,9.50
2018-11-14T00:49:50.633Z,9.58
2018-11-14T00:50:50.628Z,9.44
2018-11-14T00:51:50.620Z,9.44
2018-11-14T00:52:50.611Z,9.41
2018-11-14T00:53:50.602Z,9.40
2018-11-14T00:54:50.593Z,9.38
2018-11-14T00:55:50.578Z,9.44
2018-11-14T00:56:50.570Z,9.42
2018-11-14T00:57:50.566Z,9.44
2018-11-14T00:58:50.551Z,9.45
2018-11-14T00:59:50.605Z,9.44
2018-11-14T01:00:50.536Z,9.53
2018-11-14T01:01:50.529Z,9.58
2018-11-14T01:02:50.523Z,9.59
2018-11-14T01:03:50.506Z,9.62
2018-11-14T01:04:50.502Z,9.62
2018-11-14T01:05:50.493Z,9.68
2018-11-14T01:06:50.484Z,9.62
2018-11-14T01:07:50.469Z,9.67
2018-11-14T01:08:50.509Z,9.73
2018-11-14T01:09:50.450Z,9.68
2018-11-14T01:10:50.442Z,9.75
2018-11-14T01:11:50.437Z,9.75
2018-11-14T01:12:50.427Z,9.73
2018-11-14T01:13:50.421Z,9.75
2018-11-14T01:14:50.411Z,9.77
2018-11-14T01:15:50.397Z,9.73
2018-11-14T01:16:50.389Z,9.78
2018-11-14T01:17:50.378Z,9.78
2018-11-14T01:18:50.368Z,9.80
2018-11-14T01:19:50.368Z,9.77
2018-11-14T01:20:50.358Z,9.68
2018-11-14T01:21:50.342Z,9.77
2018-11-14T01:22:50.332Z,9.74
2018-11-14T01:23:50.328Z,9.77
2018-11-14T01:24:50.319Z,9.63
2018-11-14T01:25:50.309Z,9.73
2018-11-14T01:26:50.301Z,9.62
2018-11-14T01:27:50.287Z,9.67
2018-11-14T01:28:50.277Z,9.63
2018-11-14T01:29:50.269Z,9.65
2018-11-14T01:30:50.260Z,9.65
2018-11-14T01:31:50.256Z,9.65
2018-11-14T01:32:50.245Z,9.60
2018-11-14T01:33:50.238Z,9.59
2018-11-14T01:34:50.230Z,9.59
2018-11-14T01:35:50.288Z,9.55
2018-11-14T01:36:50.208Z,9.53
2018-11-14T01:37:50.202Z,9.45
2018-11-14T01:38:50.193Z,9.52
2018-11-14T01:39:50.179Z,9.52
2018-11-14T01:40:50.169Z,9.50
2018-11-14T01:41:50.160Z,9.52
2018-11-14T01:42:50.152Z,9.45
2018-11-14T01:43:50.146Z,9.45
2018-11-14T01:44:50.137Z,9.44
2018-11-14T01:45:50.128Z,9.49
2018-11-14T01:46:50.124Z,9.44
2018-11-14T01:47:50.105Z,9.42
2018-11-14T01:48:50.123Z,9.37
2018-11-14T01:49:50.088Z,9.42
2018-11-14T01:50:50.079Z,9.45
2018-11-14T01:51:50.075Z,9.48
2018-11-14T01:52:50.064Z,9.42
2018-11-14T01:53:50.055Z,9.44
2018-11-14T01:54:50.043Z,9.44
2018-11-14T01:55:50.037Z,9.42
2018-11-14T01:56:50.029Z,9.41
2018-11-14T01:57:50.020Z,9.48
2018-11-14T01:58:50.013Z,9.56
2018-11-14T01:59:49.997Z,9.53
2018-11-14T02:00:49.988Z,9.48
2018-11-14T02:01:49.981Z,9.59
2018-11-14T02:02:49.973Z,9.52
2018-11-14T02:03:49.965Z,9.56
2018-11-14T02:04:49.958Z,9.55
2018-11-14T02:05:49.947Z,9.53
2018-11-14T02:06:49.939Z,9.53
2018-11-14T02:07:49.924Z,9.49
2018-11-14T02:08:49.917Z,9.44
2018-11-14T02:09:49.912Z,9.48
2018-11-14T02:10:49.902Z,9.50
2018-11-14T02:11:49.888Z,9.45
2018-11-14T02:12:49.883Z,9.52
2018-11-14T02:13:49.870Z,9.49
2018-11-14T02:14:49.861Z,9.38
2018-11-14T02:15:49.856Z,9.37
2018-11-14T02:16:49.848Z,9.32
2018-11-14T02:17:49.840Z,9.37
2018-11-14T02:18:49.830Z,9.32
2018-11-14T02:19:49.814Z,9.32
2018-11-14T02:20:49.807Z,9.22
2018-11-14T02:21:49.798Z,9.16
2018-11-14T02:22:49.788Z,9.16
2018-11-14T02:23:49.781Z,9.26
2018-11-14T02:24:49.776Z,9.34
2018-11-14T02:25:49.761Z,9.23
2018-11-14T02:26:49.751Z,9.30
2018-11-14T02:27:49.744Z,9.27
2018-11-14T02:28:49.736Z,9.32
2018-11-14T02:29:49.727Z,9.31
2018-11-14T02:30:49.719Z,9.32
2018-11-14T02:31:49.706Z,9.26
2018-11-14T02:32:49.694Z,9.31
2018-11-14T02:33:49.686Z,9.22
2018-11-14T02:34:49.681Z,9.13
2018-11-14T02:35:49.671Z,9.10
2018-11-14T02:36:49.663Z,8.98
2018-11-14T02:37:49.670Z,8.96
2018-11-14T02:38:49.643Z,8.94
2018-11-14T02:39:49.628Z,8.94
2018-11-14T02:40:49.620Z,8.98
2018-11-14T02:41:49.615Z,9.12
2018-11-14T02:42:49.606Z,9.06
2018-11-14T02:43:49.590Z,9.17
2018-11-14T02:44:49.581Z,9.19
2018-11-14T02:45:49.578Z,9.15
2018-11-14T02:46:49.565Z,9.13
2018-11-14T02:47:49.565Z,9.17
2018-11-14T02:48:49.549Z,9.16
2018-11-14T02:49:49.539Z,9.16
2018-11-14T02:50:49.529Z,9.16
2018-11-14T02:51:49.516Z,9.30
2018-11-14T02:52:49.508Z,9.27
2018-11-14T02:53:49.499Z,9.34
2018-11-14T02:54:49.487Z,9.27
2018-11-14T02:55:49.482Z,9.34
2018-11-14T02:56:49.474Z,9.40
2018-11-14T02:57:49.460Z,9.38
2018-11-14T02:58:49.450Z,9.37
2018-11-14T02:59:49.444Z,9.30
2018-11-14T03:00:49.436Z,9.27
2018-11-14T03:01:49.425Z,9.32
2018-11-14T03:02:49.416Z,9.35
2018-11-14T03:03:49.402Z,9.30
2018-11-14T03:04:49.392Z,9.34
2018-11-14T03:05:49.383Z,9.35
2018-11-14T03:06:49.375Z,9.40
2018-11-14T03:07:49.368Z,9.37
2018-11-14T03:08:49.360Z,9.30
2018-11-14T03:09:49.353Z,9.30
2018-11-14T03:10:49.342Z,9.27
2018-11-14T03:11:49.328Z,9.24
2018-11-14T03:12:49.317Z,9.27
2018-11-14T03:13:49.314Z,9.27
2018-11-14T03:14:49.304Z,9.26
2018-11-14T03:15:49.290Z,9.30
2018-11-14T03:16:49.281Z,9.27
2018-11-14T03:17:49.271Z,9.31
2018-11-14T03:18:49.261Z,9.30
2018-11-14T03:19:49.255Z,9.30
2018-11-14T03:20:49.247Z,9.24
2018-11-14T03:21:49.237Z,9.31
2018-11-14T03:22:49.230Z,9.27
2018-11-14T03:23:49.214Z,9.26
2018-11-14T03:24:49.205Z,9.31
2018-11-14T03:25:49.199Z,9.32
2018-11-14T03:26:49.186Z,9.27
2018-11-14T03:27:49.181Z,9.27
2018-11-14T03:28:49.173Z,9.27
2018-11-14T03:29:49.158Z,9.31
2018-11-14T03:30:49.150Z,9.30
2018-11-14T03:31:49.144Z,9.30
2018-11-14T03:32:49.134Z,9.27
2018-11-14T03:33:49.126Z,9.30
2018-11-14T03:34:49.115Z,9.38
2018-11-14T03:35:49.101Z,9.38
2018-11-14T03:36:49.093Z,9.38
2018-11-14T03:37:49.086Z,9.38
2018-11-14T03:38:49.075Z,9.35
2018-11-14T03:39:49.068Z,9.31
2018-11-14T03:40:49.058Z,9.32
2018-11-14T03:41:49.054Z,9.31
2018-11-14T03:42:49.042Z,9.31
2018-11-14T03:43:49.028Z,9.41
2018-11-14T03:44:49.017Z,9.37
2018-11-14T03:45:49.015Z,9.38
2018-11-14T03:46:49.005Z,9.27
2018-11-14T03:47:48.990Z,9.30
2018-11-14T03:48:48.980Z,9.32
2018-11-14T03:49:48.971Z,9.30
2018-11-14T03:50:48.961Z,9.31
2018-11-14T03:51:48.955Z,9.32
2018-11-14T03:52:48.945Z,9.26
2018-11-14T03:53:48.945Z,9.26
2018-11-14T03:54:48.929Z,9.31
2018-11-14T03:55:48.913Z,9.31
2018-11-14T03:56:48.904Z,9.27
2018-11-14T03:57:48.895Z,9.27
2018-11-14T03:58:48.888Z,9.26
2018-11-14T03:59:48.881Z,9.32
2018-11-14T04:00:48.872Z,9.30
2018-11-14T04:01:48.858Z,9.35
2018-11-14T04:02:48.849Z,9.31
2018-11-14T04:03:48.843Z,9.32
2018-11-14T04:04:48.834Z,9.27
2018-11-14T04:05:48.825Z,9.30
2018-11-14T04:06:48.816Z,9.30
2018-11-14T04:07:48.801Z,9.26
2018-11-14T04:08:48.794Z,9.34
2018-11-14T04:09:48.785Z,9.31
2018-11-14T04:10:48.774Z,9.27
2018-11-14T04:11:48.769Z,9.24
2018-11-14T04:12:48.761Z,9.19
2018-11-14T04:13:48.750Z,9.15
2018-11-14T04:14:48.740Z,9.22
2018-11-14T04:15:48.726Z,9.19
2018-11-14T04:16:48.717Z,9.17
2018-11-14T04:17:48.711Z,9.13
2018-11-14T04:18:48.703Z,9.19
2018-11-14T04:19:48.688Z,9.12
2018-11-14T04:20:48.678Z,9.08
2018-11-14T04:21:48.670Z,9.10
2018-11-14T04:22:48.660Z,9.08
2018-11-14T04:23:48.655Z,9.08
2018-11-14T04:24:48.646Z,9.06
2018-11-14T04:25:48.640Z,9.15
2018-11-14T04:26:48.627Z,9.12
2018-11-14T04:27:48.613Z,9.10
2018-11-14T04:28:48.603Z,9.10
2018-11-14T04:29:48.593Z,9.15
2018-11-14T04:30:48.584Z,9.10
2018-11-14T04:31:48.579Z,9.13
2018-11-14T04:32:48.569Z,9.04
2018-11-14T04:33:48.555Z,9.00
2018-11-14T04:34:48.546Z,9.01
2018-11-14T04:35:48.541Z,8.97
2018-11-14T04:36:48.531Z,9.01
2018-11-14T04:37:48.523Z,9.01
2018-11-14T04:38:48.513Z,9.03
2018-11-14T04:39:48.498Z,9.06
2018-11-14T04:40:48.489Z,9.10
2018-11-14T04:41:48.481Z,9.16
2018-11-14T04:42:48.470Z,9.12
2018-11-14T04:43:48.465Z,9.01
2018-11-14T04:44:48.455Z,9.10
2018-11-14T04:45:48.445Z,9.08
2018-11-14T04:46:48.437Z,9.00
2018-11-14T04:47:48.472Z,9.03
2018-11-14T04:48:48.413Z,9.06
2018-11-14T04:49:48.412Z,9.08
2018-11-14T04:50:48.397Z,9.13
2018-11-14T04:51:48.383Z,9.12
2018-11-14T04:52:48.373Z,9.10
2018-11-14T04:53:48.365Z,9.15
2018-11-14T04:54:48.356Z,9.13
2018-11-14T04:55:48.349Z,9.00
2018-11-14T04:56:48.340Z,9.03
2018-11-14T04:57:48.331Z,9.00
2018-11-14T04:58:48.322Z,8.97
2018-11-14T04:59:48.307Z,9.03
2018-11-14T05:00:48.300Z,8.97
2018-11-14T05:01:48.290Z,9.08
2018-11-14T05:02:48.278Z,8.96
2018-11-14T05:03:48.272Z,8.94
2018-11-14T05:04:48.265Z,8.86
2018-11-14T05:05:48.249Z,9.03
2018-11-14T05:06:48.239Z,8.93
2018-11-14T05:07:48.234Z,8.88
2018-11-14T05:08:48.224Z,8.85
2018-11-14T05:09:48.215Z,8.93
2018-11-14T05:10:48.215Z,8.86
2018-11-14T05:11:48.191Z,8.88
2018-11-14T05:12:48.262Z,8.83
2018-11-14T05:13:48.172Z,8.88
2018-11-14T05:14:48.164Z,8.91
2018-11-14T05:15:48.157Z,8.85
2018-11-14T05:16:48.148Z,8.89
2018-11-14T05:17:48.137Z,8.86
2018-11-14T05:18:48.129Z,8.86
2018-11-14T05:19:48.115Z,8.86
2018-11-14T05:20:48.104Z,8.79
2018-11-14T05:21:48.098Z,8.82
2018-11-14T05:22:48.089Z,8.89
2018-11-14T05:23:48.074Z,8.89
2018-11-14T05:24:48.092Z,8.89
2018-11-14T05:25:48.057Z,8.86
2018-11-14T05:26:48.045Z,8.89
2018-11-14T05:27:48.046Z,8.86
2018-11-14T05:28:48.031Z,8.91
2018-11-14T05:29:48.023Z,8.88
2018-11-14T05:30:48.013Z,8.93
2018-11-14T05:31:48.059Z,8.96
2018-11-14T05:32:47.988Z,9.03
2018-11-14T05:33:47.978Z,8.89
2018-11-14T05:34:47.968Z,8.96
2018-11-14T05:35:47.962Z,8.98
2018-11-14T05:36:47.953Z,9.00
2018-11-14T05:37:47.940Z,9.00
2018-11-14T05:38:47.931Z,8.98
2018-11-14T05:39:48.048Z,8.94
2018-11-14T05:40:47.915Z,9.06
2018-11-14T05:41:47.906Z,9.06
2018-11-14T05:42:47.897Z,9.00
2018-11-14T05:43:47.886Z,9.10
2018-11-14T05:44:47.877Z,9.06
2018-11-14T05:45:47.862Z,9.01
2018-11-14T05:46:47.853Z,9.03
2018-11-14T05:47:47.848Z,9.03
2018-11-14T05:48:47.838Z,9.01
2018-11-14T05:49:47.828Z,9.12
2018-11-14T05:50:47.819Z,9.06
2018-11-14T05:51:47.804Z,9.03
2018-11-14T05:52:47.797Z,9.06
2018-11-14T05:53:47.788Z,9.03
2018-11-14T05:54:47.846Z,9.00
2018-11-14T05:55:47.764Z,9.04
2018-11-14T05:56:47.755Z,8.98
2018-11-14T05:57:47.746Z,9.04
2018-11-14T05:58:47.736Z,8.98
2018-11-14T05:59:47.730Z,9.00
2018-11-14T06:00:47.724Z,8.98
2018-11-14T06:01:47.711Z,8.91
2018-11-14T06:02:47.702Z,8.86
2018-11-14T06:03:47.688Z,8.86
2018-11-14T06:04:47.678Z,8.93
2018-11-14T06:05:47.668Z,9.00
2018-11-14T06:06:47.661Z,8.96
2018-11-14T06:07:47.653Z,9.03
2018-11-14T06:08:47.644Z,8.97
2018-11-14T06:09:47.630Z,8.98
2018-11-14T06:10:47.625Z,9.03
2018-11-14T06:11:47.615Z,9.01
2018-11-14T06:12:47.606Z,9.08
2018-11-14T06:13:47.596Z,9.01
2018-11-14T06:14:47.585Z,9.06
2018-11-14T06:15:47.570Z,9.00
2018-11-14T06:16:47.562Z,9.00
2018-11-14T06:17:47.552Z,9.08
2018-11-14T06:18:47.541Z,8.98
2018-11-14T06:19:47.535Z,9.00
2018-11-14T06:20:47.526Z,9.00
2018-11-14T06:21:47.522Z,9.06
2018-11-14T06:22:47.509Z,9.01
2018-11-14T06:23:47.581Z,8.98
2018-11-14T06:24:47.484Z,9.01
2018-11-14T06:25:47.479Z,9.01
2018-11-14T06:26:47.473Z,9.01
2018-11-14T06:27:47.454Z,9.01
2018-11-14T06:28:47.446Z,9.06
2018-11-14T06:29:47.495Z,9.00
2018-11-14T06:30:47.425Z,8.96
2018-11-14T06:31:47.419Z,8.96
2018-11-14T06:32:47.409Z,8.98
2018-11-14T06:33:47.401Z,8.94
2018-11-14T06:34:47.392Z,8.98
2018-11-14T06:35:47.375Z,8.88
2018-11-14T06:36:47.365Z,9.00
2018-11-14T06:37:47.358Z,8.98
2018-11-14T06:38:47.348Z,9.00
2018-11-14T06:39:47.341Z,9.03
2018-11-14T06:40:47.331Z,9.03
2018-11-14T06:41:47.474Z,8.97
2018-11-14T06:42:47.307Z,8.94
2018-11-14T06:43:47.303Z,8.94
2018-11-14T06:44:47.297Z,8.94
2018-11-14T06:45:47.283Z,9.00
2018-11-14T06:46:47.273Z,8.98
2018-11-14T06:47:47.259Z,8.97
2018-11-14T06:48:47.248Z,9.01
2018-11-14T06:49:47.280Z,8.98
2018-11-14T06:50:47.229Z,8.98
2018-11-14T06:51:47.224Z,8.96
2018-11-14T06:52:47.214Z,9.00
2018-11-14T06:53:47.205Z,9.08
2018-11-14T06:54:47.196Z,9.06
2018-11-14T06:55:47.186Z,9.08
2018-11-14T06:56:47.170Z,8.96
2018-11-14T06:57:47.166Z,9.03
2018-11-14T06:58:47.231Z,8.97
2018-11-14T06:59:47.170Z,9.03
2018-11-14T07:00:47.131Z,9.12
2018-11-14T07:01:47.121Z,9.01
2018-11-14T07:02:47.113Z,9.06
2018-11-14T07:03:47.107Z,9.08
2018-11-14T07:04:47.127Z,9.08
2018-11-14T07:05:47.177Z,9.06
2018-11-14T07:06:47.079Z,9.08
2018-11-14T07:07:47.068Z,9.16
2018-11-14T07:08:47.054Z,9.22
2018-11-14T07:09:47.045Z,9.15
2018-11-14T07:10:47.073Z,9.19
2018-11-14T07:11:47.033Z,9.16
2018-11-14T07:12:47.019Z,9.20
2018-11-14T07:13:47.005Z,9.31
2018-11-14T07:14:46.997Z,9.24
2018-11-14T07:15:46.991Z,9.30
2018-11-14T07:16:46.981Z,9.34
2018-11-14T07:17:47.030Z,9.24
2018-11-14T07:18:46.963Z,9.24
2018-11-14T07:19:46.949Z,9.40
2018-11-14T07:20:46.938Z,9.38
2018-11-14T07:21:46.930Z,9.45
2018-11-14T07:22:46.920Z,9.42
2018-11-14T07:23:46.931Z,9.42
2018-11-14T07:24:47.042Z,9.42
2018-11-14T07:25:46.895Z,9.45
2018-11-14T07:26:46.886Z,9.42
2018-11-14T07:27:46.871Z,9.48
2018-11-14T07:28:46.863Z,9.52
2018-11-14T07:29:46.860Z,9.56
2018-11-14T07:30:46.849Z,9.65
2018-11-14T07:31:46.835Z,9.68
2018-11-14T07:32:46.830Z,9.86
2018-11-14T07:33:46.820Z,9.99
2018-11-14T07:34:46.809Z,10.16
2018-11-14T07:35:46.803Z,10.47
2018-11-14T07:36:46.796Z,11.02
2018-11-14T07:37:46.834Z,11.45
2018-11-14T07:38:46.778Z,11.93
2018-11-14T07:39:46.765Z,12.05
2018-11-14T07:40:46.754Z,12.18
2018-11-14T07:41:46.747Z,12.54
2018-11-14T07:42:46.739Z,12.73
2018-11-14T07:43:46.889Z,13.21
2018-11-14T07:44:46.726Z,13.13
2018-11-14T07:45:46.715Z,13.73
2018-11-14T07:46:46.709Z,14.17
2018-11-14T07:47:46.705Z,14.13
2018-11-14T07:48:46.751Z,14.71
2018-11-14T07:49:46.693Z,14.30
2018-11-14T07:50:46.687Z,14.54
2018-11-14T07:51:46.674Z,14.83
2018-11-14T07:52:46.668Z,14.91
2018-11-14T07:53:46.667Z,15.03
2018-11-14T07:54:46.734Z,15.30
2018-11-14T07:55:46.657Z,15.58
2018-11-14T07:56:46.653Z,15.18
2018-11-14T07:57:46.645Z,14.78
2018-11-14T07:58:46.680Z,14.90
2018-11-14T07:59:46.637Z,15.23
2018-11-14T08:00:46.629Z,14.54
2018-11-14T08:01:46.629Z,14.46
2018-11-14T08:02:46.625Z,14.21
2018-11-14T08:03:46.617Z,14.23
2018-11-14T08:04:46.612Z,14.57
2018-11-14T08:05:46.608Z,14.11
2018-11-14T08:06:46.605Z,14.35
2018-11-14T08:07:46.632Z,14.30
2018-11-14T08:08:46.604Z,14.44
2018-11-14T08:09:46.598Z,14.34
2018-11-14T08:10:46.596Z,14.59
2018-11-14T08:11:46.586Z,14.27
2018-11-14T08:12:46.583Z,14.59
2018-11-14T08:13:46.582Z,14.34
2018-11-14T08:14:46.577Z,14.66
2018-11-14T08:15:46.582Z,14.59
2018-11-14T08:16:46.580Z,14.44
2018-11-14T08:17:46.572Z,14.46
2018-11-14T08:18:46.610Z,15.44
2018-11-14T08:19:46.567Z,15.76
2018-11-14T08:20:46.564Z,15.49
2018-11-14T08:21:46.561Z,15.74
2018-11-14T08:22:46.560Z,15.74
2018-11-14T08:23:46.552Z,15.31
2018-11-14T08:24:46.609Z,15.40
2018-11-14T08:25:46.547Z,14.91
2018-11-14T08:26:46.545Z,14.57
2018-11-14T08:27:46.551Z,13.69
2018-11-14T08:28:46.545Z,13.28
2018-11-14T08:29:46.545Z,12.71
2018-11-14T08:30:46.600Z,12.54
2018-11-14T08:31:46.534Z,12.22
2018-11-14T08:32:46.531Z,12.25
2018-11-14T08:33:46.535Z,12.22
2018-11-14T08:34:46.533Z,12.22
2018-11-14T08:35:46.522Z,12.21
2018-11-14T08:36:46.519Z,12.30
2018-11-14T08:37:46.516Z,12.19
2018-11-14T08:38:46.514Z,12.44
2018-11-14T08:39:46.513Z,12.77
2018-11-14T08:40:46.510Z,13.25
2018-11-14T08:41:46.506Z,13.53
2018-11-14T08:42:46.503Z,14.08
2018-11-14T08:43:46.493Z,14.75
2018-11-14T08:44:46.489Z,15.01
2018-11-14T08:45:46.485Z,14.72
2018-11-14T08:46:46.482Z,14.93
2018-11-14T08:47:46.485Z,15.35
2018-11-14T08:48:46.479Z,15.64
2018-11-14T08:49:46.471Z,16.36
2018-11-14T08:50:46.466Z,16.73
2018-11-14T08:51:46.478Z,16.57
2018-11-14T08:52:46.466Z,16.85
2018-11-14T08:53:46.462Z,17.28
2018-11-14T08:54:46.460Z,17.42
2018-11-14T08:55:46.453Z,17.94
2018-11-14T08:56:46.451Z,18.23
2018-11-14T08:57:46.472Z,17.94
2018-11-14T08:58:46.448Z,17.42
2018-11-14T08:59:46.463Z,18.21
2018-11-14T09:00:46.453Z,17.98
2018-11-14T09:01:46.450Z,17.25
2018-11-14T09:02:46.452Z,17.62
2018-11-14T09:03:46.498Z,17.84
2018-11-14T09:04:46.443Z,18.51
2018-11-14T09:05:46.447Z,19.24
2018-11-14T09:06:46.448Z,19.30
2018-11-14T09:07:46.502Z,19.52
2018-11-14T09:08:46.444Z,20.17
2018-11-14T09:09:46.445Z,20.56
2018-11-14T09:10:46.445Z,20.68
2018-11-14T09:11:46.449Z,20.83
2018-11-14T09:12:46.499Z,20.78
2018-11-14T09:13:46.451Z,21.27
2018-11-14T09:14:46.502Z,20.60
2018-11-14T09:15:46.459Z,20.64
2018-11-14T09:16:46.538Z,21.15
2018-11-14T09:17:46.453Z,21.70
2018-11-14T09:18:46.516Z,22.02
2018-11-14T09:19:46.467Z,22.17
2018-11-14T09:20:46.462Z,22.30
2018-11-14T09:21:46.460Z,21.85
2018-11-14T09:22:46.465Z,22.05
2018-11-14T09:23:46.477Z,22.36
2018-11-14T09:24:46.549Z,21.94
2018-11-14T09:25:46.478Z,20.68
2018-11-14T09:26:46.476Z,18.97
2018-11-14T09:27:46.476Z,18.94
2018-11-14T09:28:46.481Z,19.07
2018-11-14T09:29:46.484Z,18.02
2018-11-14T09:30:46.483Z,17.53
2018-11-14T09:31:46.490Z,17.42
2018-11-14T09:32:46.493Z,17.62
2018-11-14T09:33:46.495Z,17.68
2018-11-14T09:34:46.540Z,17.15
2018-11-14T09:35:46.496Z,17.12
2018-11-14T09:36:46.498Z,17.25
2018-11-14T09:37:46.555Z,16.70
2018-11-14T09:38:46.509Z,17.22
2018-11-14T09:39:46.507Z,17.05
2018-11-14T09:40:46.548Z,16.98
2018-11-14T09:41:46.511Z,17.47
2018-11-14T09:42:46.514Z,17.51
2018-11-14T09:43:46.540Z,17.38
2018-11-14T09:44:46.523Z,17.66
2018-11-14T09:45:46.525Z,18.29
2018-11-14T09:46:46.529Z,18.72
2018-11-14T09:47:46.525Z,19.01
2018-11-14T09:48:46.528Z,18.69
2018-11-14T09:49:46.529Z,19.23
2018-11-14T09:50:46.533Z,19.64
2018-11-14T09:51:46.537Z,19.67
2018-11-14T09:52:46.539Z,19.97
2018-11-14T09:53:46.540Z,20.31
2018-11-14T09:54:46.541Z,21.05
2018-11-14T09:55:46.546Z,21.45
2018-11-14T09:56:46.580Z,21.33
2018-11-14T09:57:46.553Z,21.51
2018-11-14T09:58:46.561Z,21.56
2018-11-14T09:59:46.556Z,21.18
2018-11-14T10:00:46.569Z,21.67
2018-11-14T10:01:46.559Z,21.30
2018-11-14T10:02:46.582Z,20.94
2018-11-14T10:03:46.569Z,21.11
2018-11-14T10:04:46.573Z,21.40
2018-11-14T10:05:46.620Z,21.05
2018-11-14T10:06:46.579Z,21.52
2018-11-14T10:07:46.580Z,21.34
2018-11-14T10:08:46.613Z,20.40
2018-11-14T10:09:46.590Z,20.41
2018-11-14T10:10:46.648Z,20.20
2018-11-14T10:11:46.590Z,19.78
2018-11-14T10:12:46.594Z,19.95
2018-11-14T10:13:46.598Z,20.37
2018-11-14T10:14:46.603Z,19.53
2018-11-14T10:15:46.673Z,19.39
2018-11-14T10:16:46.613Z,19.61
2018-11-14T10:17:46.618Z,19.76
2018-11-14T10:18:46.619Z,20.48
2018-11-14T10:19:46.617Z,21.11
2018-11-14T10:20:46.621Z,21.03
2018-11-14T10:21:46.626Z,20.96
2018-11-14T10:22:46.630Z,20.71
2018-11-14T10:23:46.636Z,20.20
2018-11-14T10:24:46.640Z,20.69
2018-11-14T10:25:46.640Z,20.51
2018-11-14T10:26:46.643Z,20.51
2018-11-14T10:27:46.650Z,20.91
2018-11-14T10:28:46.653Z,21.63
2018-11-14T10:29:46.655Z,21.73
2018-11-14T10:30:46.687Z,21.24
2018-11-14T10:31:46.754Z,21.56
2018-11-14T10:32:46.661Z,21.90
2018-11-14T10:33:46.665Z,21.83
2018-11-14T10:34:46.668Z,20.91
2018-11-14T10:35:46.675Z,20.41
2018-11-14T10:36:46.680Z,20.85
2018-11-14T10:37:46.684Z,20.73
2018-11-14T10:38:46.689Z,19.55
2018-11-14T10:39:46.684Z,19.17
2018-11-14T10:40:46.688Z,19.25
2018-11-14T10:41:46.700Z,19.31
2018-11-14T10:42:46.771Z,20.01
2018-11-14T10:43:46.698Z,19.61
2018-11-14T10:44:46.701Z,19.67
2018-11-14T10:45:46.709Z,19.46
2018-11-14T10:46:46.708Z,18.84
2018-11-14T10:47:46.716Z,18.83
2018-11-14T10:48:46.717Z,19.06
2018-11-14T10:49:46.720Z,18.54
2018-11-14T10:50:46.763Z,19.12
2018-11-14T10:51:46.724Z,19.06
2018-11-14T10:52:46.725Z,19.43
2018-11-14T10:53:46.727Z,19.43
2018-11-14T10:54:46.730Z,19.34
2018-11-14T10:55:46.736Z,18.69
2018-11-14T10:56:46.740Z,18.28
2018-11-14T10:57:46.739Z,18.89
2018-11-14T10:58:46.741Z,18.76
2018-11-14T10:59:46.747Z,18.71
2018-11-14T11:00:46.750Z,19.06
2018-11-14T11:01:46.751Z,19.06
2018-11-14T11:02:46.755Z,18.42
2018-11-14T11:03:46.751Z,17.47
2018-11-14T11:04:46.753Z,16.96
2018-11-14T11:05:46.755Z,16.57
2018-11-14T11:06:46.758Z,16.81
2018-11-14T11:07:46.769Z,16.81
2018-11-14T11:08:46.873Z,16.52
2018-11-14T11:09:46.768Z,16.90
2018-11-14T11:10:46.770Z,16.95
2018-11-14T11:11:46.765Z,17.07
2018-11-14T11:12:46.766Z,17.43
2018-11-14T11:13:46.781Z,17.28
2018-11-14T11:14:46.774Z,17.14
2018-11-14T11:15:46.770Z,16.54
2018-11-14T11:16:46.771Z,15.88
2018-11-14T11:17:46.771Z,15.80
2018-11-14T11:18:46.771Z,16.03
2018-11-14T11:19:46.776Z,16.16
2018-11-14T11:20:46.776Z,16.29
2018-11-14T11:21:46.777Z,16.45
2018-11-14T11:22:46.781Z,16.52
2018-11-14T11:23:46.771Z,16.40
2018-11-14T11:24:46.771Z,16.08
2018-11-14T11:25:46.778Z,16.11
2018-11-14T11:26:46.769Z,15.70
2018-11-14T11:27:46.773Z,15.81
2018-11-14T11:28:46.771Z,15.99
2018-11-14T11:29:46.768Z,16.03
2018-11-14T11:30:46.784Z,16.18
2018-11-14T11:31:46.823Z,15.81
2018-11-14T11:32:46.767Z,15.44
2018-11-14T11:33:46.766Z,15.34
2018-11-14T11:34:46.764Z,15.46
2018-11-14T11:35:46.759Z,15.19
2018-11-14T11:36:46.756Z,15.12
2018-11-14T11:37:46.752Z,14.94
2018-11-14T11:38:46.751Z,14.72
2018-11-14T11:39:46.752Z,14.71
2018-11-14T11:40:46.749Z,14.67
2018-11-14T11:41:46.748Z,14.66
2018-11-14T11:42:46.744Z,14.64
2018-11-14T11:43:46.736Z,14.56
2018-11-14T11:44:46.734Z,14.61
2018-11-14T11:45:46.736Z,14.24
2018-11-14T11:46:46.732Z,14.16
2018-11-14T11:47:46.723Z,14.34
2018-11-14T11:48:46.721Z,14.48
2018-11-14T11:49:46.719Z,14.60
2018-11-14T11:50:46.719Z,14.69
2018-11-14T11:51:46.716Z,14.79
2018-11-14T11:52:46.713Z,15.00
2018-11-14T11:53:46.710Z,14.98
2018-11-14T11:54:46.705Z,15.03
2018-11-14T11:55:46.696Z,14.72
2018-11-14T11:56:46.692Z,14.69
2018-11-14T11:57:46.689Z,14.56
2018-11-14T11:58:46.686Z,14.48
2018-11-14T11:59:46.909Z,14.56
2018-11-14T12:00:46.742Z,14.49
2018-11-14T12:01:46.674Z,14.59
2018-11-14T12:02:46.671Z,14.31
2018-11-14T12:03:46.670Z,14.26
2018-11-14T12:04:46.666Z,14.26
2018-11-14T12:05:46.664Z,14.13
2018-11-14T12:06:46.659Z,14.23
2018-11-14T12:07:46.648Z,14.31
2018-11-14T12:08:46.644Z,14.34
2018-11-14T12:09:46.644Z,14.48
2018-11-14T12:10:46.759Z,14.57
2018-11-14T12:11:46.637Z,14.61
2018-11-14T12:12:46.635Z,14.71
2018-11-14T12:13:46.699Z,14.67
2018-11-14T12:14:46.623Z,14.80
2018-11-14T12:15:46.613Z,14.78
2018-11-14T12:16:46.608Z,14.91
2018-11-14T12:17:46.680Z,14.86
2018-11-14T12:18:46.606Z,14.95
2018-11-14T12:19:46.596Z,14.98
2018-11-14T12:20:46.591Z,15.05
2018-11-14T12:21:46.587Z,15.19
2018-11-14T12:22:46.582Z,15.27
2018-11-14T12:23:46.691Z,15.20
2018-11-14T12:24:46.578Z,15.13
2018-11-14T12:25:46.581Z,15.09
2018-11-14T12:26:46.569Z,14.94
2018-11-14T12:27:46.560Z,14.90
2018-11-14T12:28:46.555Z,14.87
2018-11-14T12:29:46.589Z,14.60
2018-11-14T12:30:46.650Z,14.59
2018-11-14T12:31:46.546Z,14.41
2018-11-14T12:32:46.568Z,14.29
2018-11-14T12:33:46.531Z,14.35
2018-11-14T12:34:46.559Z,14.41
2018-11-14T12:35:46.556Z,14.46
2018-11-14T12:36:46.522Z,14.53
2018-11-14T12:37:46.517Z,14.48
2018-11-14T12:38:46.590Z,14.61
2018-11-14T12:39:46.505Z,14.63
2018-11-14T12:40:46.498Z,14.64
2018-11-14T12:41:46.507Z,14.69
2018-11-14T12:42:46.489Z,14.69
2018-11-14T12:43:46.489Z,14.67
2018-11-14T12:44:46.483Z,14.90
2018-11-14T12:45:46.479Z,14.93
2018-11-14T12:46:46.474Z,14.83
2018-11-14T12:47:46.481Z,14.71
2018-11-14T12:48:46.459Z,14.66
2018-11-14T12:49:46.459Z,14.49
2018-11-14T12:50:46.455Z,14.39
2018-11-14T12:51:46.443Z,14.30
2018-11-14T12:52:46.497Z,14.41
2018-11-14T12:53:46.434Z,14.30
2018-11-14T12:54:46.430Z,14.36
2018-11-14T12:55:46.428Z,14.29
2018-11-14T12:56:46.423Z,14.35
2018-11-14T12:57:46.418Z,14.31
2018-11-14T12:58:46.414Z,14.21
2018-11-14T12:59:46.409Z,14.27
2018-11-14T13:00:46.401Z,14.35
2018-11-14T13:01:46.393Z,14.35
2018-11-14T13:02:46.425Z,14.38
2018-11-14T13:03:46.387Z,14.41
2018-11-14T13:04:46.383Z,14.44
2018-11-14T13:05:46.372Z,14.48
2018-11-14T13:06:46.368Z,14.57
2018-11-14T13:07:46.368Z,14.54